Time,TemperatureF,DewpointF,PressureIn,WindDirection,WindDirectionDegrees,WindSpeedMPH,WindSpeedGustMPH,Humidity,HourlyPrecipIn,Conditions,Clouds,dailyrainin,SoftwareType,DateUTC
2013-09-02 00:14:00,73.0,71.0,29.81,SSE,150,0.0,0.0,93,0.00,,,0.00,,2013-09-02 04:14:00,
2013-09-02 00:25:00,73.0,71.0,29.81,SSE,150,0.0,0.0,93,0.00,,,0.00,,2013-09-02 04:25:00,
2013-09-02 00:54:00,73.0,72.0,29.80,SSE,150,0.0,0.0,98,0.00,,,0.00,,2013-09-02 04:54:00,
2013-09-02 01:04:00,73.0,72.0,29.80,SSE,150,0.0,0.0,98,0.00,,,0.00,,2013-09-02 05:04:00,
2013-09-02 01:13:00,73.0,72.0,29.80,SSE,150,0.0,0.0,98,0.00,,,0.00,,2013-09-02 05:13:00,
2013-09-02 01:23:00,73.0,73.0,29.80,SSE,148,0.0,0.0,100,0.00,,,0.00,,2013-09-02 05:23:00,
2013-09-02 01:52:00,73.0,73.0,29.81,SSE,147,0.0,0.0,99,0.00,,,0.00,,2013-09-02 05:52:00,
2013-09-02 02:03:00,73.0,73.0,29.81,SSE,147,0.0,0.0,99,0.00,,,0.00,,2013-09-02 06:03:00,
2013-09-02 02:22:00,73.0,73.0,29.81,SSE,151,0.0,0.0,100,0.00,,,0.00,,2013-09-02 06:22:00,
2013-09-02 02:43:00,73.0,73.0,29.81,SSE,151,0.0,0.0,100,0.00,,,0.00,,2013-09-02 06:43:00,
2013-09-02 02:52:00,73.0,73.0,29.81,SSE,151,0.0,0.0,100,0.00,,,0.00,,2013-09-02 06:52:00,
2013-09-02 03:11:00,73.0,73.0,29.80,SSE,151,0.0,0.0,100,0.00,,,0.00,,2013-09-02 07:11:00,
2013-09-02 03:21:00,73.0,73.0,29.80,SSE,151,0.0,1.0,100,0.00,,,0.00,,2013-09-02 07:21:00,
2013-09-02 03:52:00,73.0,73.0,29.80,SSE,151,0.0,0.0,100,0.00,,,0.00,,2013-09-02 07:52:00,
2013-09-02 04:11:00,73.0,73.0,29.80,SSE,151,0.0,0.0,100,0.00,,,0.00,,2013-09-02 08:11:00,
2013-09-02 04:22:00,73.0,73.0,29.80,SSE,151,0.0,0.0,100,0.00,,,0.00,,2013-09-02 08:22:00,
2013-09-02 04:52:00,72.0,72.0,29.80,SSE,151,0.0,1.0,100,0.00,,,0.00,,2013-09-02 08:52:00,
2013-09-02 05:12:00,72.0,72.0,29.81,SSE,151,0.0,0.0,100,0.00,,,0.00,,2013-09-02 09:12:00,
2013-09-02 05:22:00,72.0,72.0,29.81,SSE,151,0.0,0.0,100,0.00,,,0.00,,2013-09-02 09:22:00,
2013-09-02 05:53:00,71.0,71.0,29.82,SSE,150,0.0,0.0,100,0.00,,,0.00,,2013-09-02 09:53:00,
2013-09-02 06:23:00,71.0,71.0,29.83,SSE,150,0.0,0.0,100,0.00,,,0.00,,2013-09-02 10:23:00,
2013-09-02 06:53:00,71.0,71.0,29.83,SSE,151,0.0,3.0,100,0.00,,,0.00,,2013-09-02 10:53:00,
2013-09-02 07:22:00,72.0,72.0,29.83,SSE,151,0.0,0.0,100,0.00,,,0.00,,2013-09-02 11:22:00,
2013-09-02 07:33:00,72.0,72.0,29.83,SSE,151,0.0,0.0,100,0.00,,,0.00,,2013-09-02 11:33:00,
2013-09-02 07:52:00,72.0,72.0,29.84,SSE,151,0.0,0.0,100,0.00,,,0.00,,2013-09-02 11:52:00,
2013-09-02 08:21:00,72.0,72.0,29.84,SSE,151,0.0,1.0,100,0.00,,,0.00,,2013-09-02 12:21:00,
2013-09-02 08:32:00,72.0,72.0,29.84,SSE,151,0.0,1.0,100,0.00,,,0.00,,2013-09-02 12:32:00,
2013-09-02 08:52:00,72.0,72.0,29.85,SSE,148,0.0,1.0,100,0.00,,,0.00,,2013-09-02 12:52:00,
2013-09-02 09:11:00,73.0,73.0,29.85,SE,140,0.0,1.0,100,0.00,,,0.00,,2013-09-02 13:11:00,
2013-09-02 09:22:00,73.0,73.0,29.85,SSE,151,0.0,1.0,100,0.00,,,0.00,,2013-09-02 13:22:00,
2013-09-02 09:32:00,73.0,73.0,29.85,SSE,151,0.0,1.0,100,0.00,,,0.00,,2013-09-02 13:32:00,
2013-09-02 09:52:00,74.0,74.0,29.85,SSE,157,0.0,3.0,100,0.00,,,0.00,,2013-09-02 13:52:00,
2013-09-02 10:22:00,76.0,75.0,29.85,ENE,73,1.0,7.0,96,0.00,,,0.00,,2013-09-02 14:22:00,
2013-09-02 10:32:00,76.0,75.0,29.85,ENE,73,1.0,7.0,96,0.00,,,0.00,,2013-09-02 14:32:00,
2013-09-02 10:34:00,79.0,73.0,29.86,East,86,1.0,5.0,81,0.00,,,0.00,,2013-09-02 14:34:00,
2013-09-02 10:52:00,79.0,73.0,29.86,East,86,1.0,5.0,81,0.00,,,0.00,,2013-09-02 14:52:00,
2013-09-02 11:02:00,79.0,73.0,29.86,East,86,1.0,5.0,81,0.00,,,0.00,,2013-09-02 15:02:00,
2013-09-02 11:12:00,79.0,73.0,29.86,East,86,1.0,5.0,81,0.00,,,0.00,,2013-09-02 15:12:00,
2013-09-02 11:23:00,79.0,73.0,29.86,East,86,1.0,5.0,81,0.00,,,0.00,,2013-09-02 15:23:00,
2013-09-02 12:24:00,84.0,71.0,29.86,ENE,66,3.0,6.0,66,0.00,,,0.00,,2013-09-02 16:24:00,
2013-09-02 12:34:00,84.0,71.0,29.86,ENE,66,3.0,6.0,66,0.00,,,0.00,,2013-09-02 16:34:00,
2013-09-02 12:53:00,85.0,70.0,29.85,East,83,0.0,6.0,62,0.00,,,0.00,,2013-09-02 16:53:00,
2013-09-02 13:13:00,86.0,70.0,29.85,ENE,76,3.0,7.0,60,0.00,,,0.00,,2013-09-02 17:13:00,
2013-09-02 13:23:00,86.0,70.0,29.85,ENE,76,3.0,7.0,60,0.00,,,0.00,,2013-09-02 17:23:00,
2013-09-02 13:52:00,85.0,69.0,29.85,North,0,0.0,3.0,58,0.00,,,0.00,,2013-09-02 17:52:00,
2013-09-02 14:13:00,85.0,69.0,29.85,NNE,17,0.0,3.0,59,0.00,,,0.00,,2013-09-02 18:13:00,
2013-09-02 14:22:00,85.0,69.0,29.85,NNE,17,0.0,3.0,59,0.00,,,0.00,,2013-09-02 18:22:00,
2013-09-02 14:32:00,85.0,69.0,29.85,NNE,17,0.0,3.0,59,0.00,,,0.00,,2013-09-02 18:32:00,
2013-09-02 14:52:00,85.0,71.0,29.85,NNE,16,3.0,8.0,63,0.00,,,0.00,,2013-09-02 18:52:00,
2013-09-02 15:12:00,84.0,71.0,29.85,SSW,205,1.0,9.0,65,0.00,,,0.00,,2013-09-02 19:12:00,
2013-09-02 15:22:00,84.0,70.0,29.84,East,85,2.0,6.0,63,0.00,,,0.00,,2013-09-02 19:22:00,
2013-09-02 15:52:00,85.0,69.0,29.83,ESE,120,0.0,5.0,59,0.00,,,0.00,,2013-09-02 19:52:00,
2013-09-02 16:12:00,86.0,69.0,29.82,NNE,24,0.0,7.0,57,0.00,,,0.00,,2013-09-02 20:12:00,
2013-09-02 16:22:00,86.0,69.0,29.82,NNE,24,0.0,7.0,57,0.00,,,0.00,,2013-09-02 20:22:00,
2013-09-02 16:52:00,85.0,67.0,29.82,SE,131,0.0,6.0,55,0.00,,,0.00,,2013-09-02 20:52:00,
2013-09-02 17:12:00,84.0,67.0,29.82,NNE,27,0.0,8.0,56,0.00,,,0.00,,2013-09-02 21:12:00,
2013-09-02 17:23:00,84.0,67.0,29.82,NNE,27,0.0,8.0,56,0.00,,,0.00,,2013-09-02 21:23:00,
2013-09-02 17:55:00,83.0,69.0,29.83,South,185,0.0,1.0,62,0.00,,,0.00,,2013-09-02 21:55:00,
2013-09-02 18:04:00,83.0,69.0,29.83,South,185,0.0,1.0,62,0.00,,,0.00,,2013-09-02 22:04:00,
2013-09-02 18:24:00,82.0,68.0,29.83,North,6,1.0,8.0,62,0.00,,,0.00,,2013-09-02 22:24:00,
2013-09-02 18:54:00,81.0,65.0,29.83,SW,232,0.0,6.0,58,0.00,,,0.00,,2013-09-02 22:54:00,
2013-09-02 19:03:00,81.0,65.0,29.83,SW,232,0.0,6.0,58,0.00,,,0.00,,2013-09-02 23:03:00,
2013-09-02 19:12:00,81.0,65.0,29.83,SW,232,0.0,6.0,58,0.00,,,0.00,,2013-09-02 23:12:00,
2013-09-02 19:22:00,81.0,65.0,29.83,SW,232,0.0,6.0,58,0.00,,,0.00,,2013-09-02 23:22:00,
2013-09-02 19:53:00,79.0,66.0,29.84,SE,131,0.0,0.0,64,0.00,,,0.00,,2013-09-02 23:53:00,
2013-09-02 20:02:00,79.0,66.0,29.84,SE,131,0.0,0.0,64,0.00,,,0.00,,2013-09-03 00:02:00,
2013-09-02 20:12:00,79.0,66.0,29.84,SE,131,0.0,0.0,64,0.00,,,0.00,,2013-09-03 00:12:00,
2013-09-02 20:22:00,78.0,67.0,29.85,SE,127,0.0,1.0,68,0.00,,,0.00,,2013-09-03 00:22:00,
2013-09-02 20:42:00,77.0,66.0,29.86,SE,133,0.0,1.0,70,0.00,,,0.00,,2013-09-03 00:42:00,
2013-09-02 20:52:00,77.0,66.0,29.86,SE,133,0.0,1.0,70,0.00,,,0.00,,2013-09-03 00:52:00,
2013-09-02 21:11:00,76.0,66.0,29.87,ESE,110,0.0,0.0,71,0.00,,,0.00,,2013-09-03 01:11:00,
2013-09-02 21:22:00,76.0,67.0,29.88,ESE,109,0.0,2.0,73,0.00,,,0.00,,2013-09-03 01:22:00,
2013-09-02 21:42:00,75.0,67.0,29.89,ESE,107,0.0,0.0,76,0.00,,,0.00,,2013-09-03 01:42:00,
2013-09-02 21:52:00,75.0,67.0,29.89,ESE,107,0.0,0.0,76,0.00,,,0.00,,2013-09-03 01:52:00,
2013-09-02 22:12:00,74.0,66.0,29.89,ENE,78,0.0,0.0,77,0.00,,,0.00,,2013-09-03 02:12:00,
2013-09-02 22:22:00,73.0,66.0,29.90,East,97,0.0,0.0,79,0.00,,,0.00,,2013-09-03 02:22:00,
2013-09-02 22:42:00,73.0,66.0,29.89,East,99,0.0,0.0,80,0.00,,,0.00,,2013-09-03 02:42:00,
2013-09-02 22:52:00,72.0,65.0,29.91,ESE,110,0.0,0.0,80,0.00,,,0.00,,2013-09-03 02:52:00,
2013-09-02 23:02:00,72.0,65.0,29.91,ESE,110,0.0,0.0,80,0.00,,,0.00,,2013-09-03 03:02:00,
2013-09-02 23:11:00,72.0,65.0,29.91,ESE,110,0.0,0.0,80,0.00,,,0.00,,2013-09-03 03:11:00,
2013-09-02 23:23:00,72.0,65.0,29.91,ESE,110,0.0,0.0,80,0.00,,,0.00,,2013-09-03 03:23:00,
2013-09-02 23:55:00,71.0,62.0,29.91,East,83,0.0,0.0,74,0.00,,,0.00,,2013-09-03 03:55:00,